Main page
METAR-TAF:

METAR-TAF

Airports :

Fliegerhorst Meppen

Meppen, Germany

latitude: 52-43-24N, longitude: 007-19-35E, elevation: 21 m

Current weather observation

The report was made 1 hour and 2 minutes ago, at 01:20 UTC
Calm wind
Temperature 18°C
Humidity 100%
Pressure 1014 hPa

METAR: ETWM 150120Z AUTO 00000KT //// // ////// 18/18 Q1014 ///

Time: 04:22 (02:22 UTC)


TAF: missing

Weather observations and forecasts of more than 4000 airports (METAR and TAF reports).

The available stations are represented by yellow and red dots on the map.

Hover mouse over dot to see the name of the station.

Then click to see weather observations and forecasts.

To change the map : click on the green buttons with a black cross to zoom in, on the green button with a dash to zoom out, or on the green arrows for adjacent maps.


METAR-TAF: